Time;durP1;ratioP1;P1;durP2;ratioP2;P2;SDS_P1;SDS_P2;PMS_P1;PMS_P2;Temp;Humidity;BMP_temperature;BMP_pressure;BME280_temperature;BME280_humidity;BME280_pressure;Samples;Min_cycle;Max_cycle;Signal;HPM_P1;HPM_P2
2022/11/05 00:09:59;;;;;;;19.15;11.88;;;;;;;5.96;76.19;92395.28;2054296;70;20590;-78
2022/11/05 00:17:53;;;;;;;17.08;10.70;;;;;;;5.89;76.32;92401.72;2053217;70;20675;-76
2022/11/05 00:20:19;;;;;;;17.90;11.13;;;;;;;5.84;76.81;92393.03;2054190;70;20150;-77
2022/11/05 00:25:29;;;;;;;15.55;9.55;;;;;;;5.85;76.39;92391.69;2053981;70;20181;-76
2022/11/05 00:28:00;;;;;;;13.57;8.98;;;;;;;5.85;76.19;92393.75;2054333;70;20155;-76
2022/11/05 00:30:28;;;;;;;11.60;7.38;;;;;;;5.71;76.85;92382.28;2050850;70;20154;-76
2022/11/05 00:32:59;;;;;;;11.20;7.70;;;;;;;5.83;75.70;92402.00;2054286;70;20169;-77
2022/11/05 00:35:25;;;;;;;12.68;6.63;;;;;;;5.75;76.03;92404.19;2054374;70;20470;-77
2022/11/05 00:37:52;;;;;;;6.88;4.63;;;;;;;5.61;75.41;92384.34;2054304;70;20605;-76
2022/11/05 00:40:18;;;;;;;7.55;5.38;;;;;;;5.75;75.84;92413.31;2054316;70;20563;-74
2022/11/05 00:45:29;;;;;;;12.85;6.70;;;;;;;5.82;76.56;92434.06;2054461;70;20526;-76
2022/11/05 00:50:59;;;;;;;15.13;9.20;;;;;;;5.81;76.61;92436.09;2043385;70;20575;-76
2022/11/05 00:53:24;;;;;;;15.88;9.77;;;;;;;5.68;77.25;92441.38;2040659;70;20171;-76
2022/11/05 00:55:50;;;;;;;16.52;10.18;;;;;;;5.57;77.66;92429.47;2048335;70;20143;-75
2022/11/05 00:58:18;;;;;;;17.55;10.35;;;;;;;5.48;78.05;92423.84;2054301;70;20138;-75
2022/11/05 01:00:49;;;;;;;17.45;10.88;;;;;;;5.34;78.74;92441.00;2054110;70;20575;-76
2022/11/05 01:03:16;;;;;;;18.75;11.68;;;;;;;5.51;78.71;92442.97;2053264;70;20154;-75
2022/11/05 01:05:47;;;;;;;25.50;14.43;;;;;;;5.56;78.25;92438.44;2054295;70;20610;-75
2022/11/05 01:08:15;;;;;;;25.15;14.60;;;;;;;5.69;77.41;92437.28;2054054;70;20268;-74
2022/11/05 01:10:43;;;;;;;29.05;15.55;;;;;;;5.82;76.53;92436.88;2053946;70;20590;-74
2022/11/05 01:13:09;;;;;;;24.73;15.23;;;;;;;5.85;77.20;92441.25;2054165;70;20283;-75
2022/11/05 01:15:36;;;;;;;24.58;15.32;;;;;;;5.85;77.48;92453.16;2053963;70;20196;-74
2022/11/05 01:18:03;;;;;;;26.77;14.48;;;;;;;5.90;77.12;92459.78;2054022;70;20164;-75
2022/11/05 01:20:28;;;;;;;23.52;14.75;;;;;;;5.93;76.86;92457.91;2054159;70;20549;-74
2022/11/05 01:22:54;;;;;;;22.38;13.75;;;;;;;5.88;76.81;92459.66;2054040;70;20177;-75
2022/11/05 01:25:20;;;;;;;23.85;14.82;;;;;;;5.81;77.15;92457.72;2054069;70;20157;-76
2022/11/05 01:27:45;;;;;;;22.25;14.45;;;;;;;5.88;77.11;92461.72;2054142;70;20137;-75
2022/11/05 01:30:11;;;;;;;23.60;13.60;;;;;;;5.98;76.76;92454.09;2053851;70;20219;-75
2022/11/05 01:32:37;;;;;;;23.58;14.32;;;;;;;5.96;76.26;92449.09;2053997;70;20150;-76
2022/11/05 01:35:08;;;;;;;21.48;13.48;;;;;;;5.99;76.24;92458.34;2050836;70;20152;-77
2022/11/05 01:37:34;;;;;;;19.52;12.73;;;;;;;5.92;76.65;92453.66;2053896;70;20566;-76
2022/11/05 01:39:59;;;;;;;23.80;14.70;;;;;;;5.60;78.26;92461.06;2054128;70;20674;-76
2022/11/05 01:42:27;;;;;;;25.65;13.73;;;;;;;5.64;78.53;92460.66;2054064;70;20618;-76
2022/11/05 01:44:59;;;;;;;24.30;13.73;;;;;;;5.86;76.95;92468.63;2050348;70;20153;-76
2022/11/05 01:47:33;;;;;;;20.30;12.40;;;;;;;5.96;77.12;92470.72;2054141;70;20510;-77
2022/11/05 01:50:22;;;;;;;23.58;14.35;;;;;;;5.87;77.07;92466.56;2053940;70;20246;-76
2022/11/05 01:52:52;;;;;;;24.88;13.48;;;;;;;5.75;77.13;92460.06;2048514;70;20146;-77
2022/11/05 01:55:23;;;;;;;25.45;13.98;;;;;;;5.78;77.65;92453.31;2054070;70;20573;-76
2022/11/05 01:57:50;;;;;;;22.65;14.48;;;;;;;5.88;77.10;92461.72;2053938;70;20165;-77
2022/11/05 02:00:15;;;;;;;24.42;14.15;;;;;;;5.88;76.84;92462.44;2050522;70;20146;-75
2022/11/05 02:02:42;;;;;;;22.42;14.32;;;;;;;5.86;77.06;92463.03;2054191;70;20153;-76
2022/11/05 02:05:11;;;;;;;22.88;13.75;;;;;;;5.83;76.84;92467.00;2053856;70;20249;-75
2022/11/05 02:07:37;;;;;;;23.60;13.80;;;;;;;5.88;76.82;92467.28;2054021;70;20134;-75
2022/11/05 02:10:08;;;;;;;23.80;14.82;;;;;;;5.89;76.79;92472.28;2054082;70;20149;-76
2022/11/05 02:12:36;;;;;;;36.25;19.98;;;;;;;5.41;79.02;92469.41;2053942;70;20296;-75
2022/11/05 02:15:02;;;;;;;42.78;22.83;;;;;;;5.38;80.66;92464.97;2053961;69;20190;-75
2022/11/05 02:17:37;;;;;;;51.17;26.05;;;;;;;5.22;82.44;92470.06;2054086;70;20282;-78
2022/11/05 02:20:17;;;;;;;48.75;25.70;;;;;;;5.67;80.01;92481.81;2050863;70;20135;-76
2022/11/05 02:23:09;;;;;;;40.22;22.80;;;;;;;5.77;79.09;92472.13;2054577;70;20182;-77
2022/11/05 02:25:53;;;;;;;40.15;22.45;;;;;;;5.73;78.32;92459.94;2054436;70;20146;-76
2022/11/05 02:29:13;;;;;;;42.72;23.73;;;;;;;5.59;79.57;92465.19;2054416;70;20152;-75
2022/11/05 02:32:02;;;;;;;41.70;22.88;;;;;;;5.72;78.84;92458.44;2043625;70;20262;-76
2022/11/05 02:34:46;;;;;;;39.63;21.92;;;;;;;5.81;78.44;92460.50;2053818;70;20235;-76
2022/11/05 02:37:30;;;;;;;36.05;20.52;;;;;;;5.93;78.03;92466.28;2054608;70;20169;-77
2022/11/05 02:40:33;;;;;;;34.95;19.77;;;;;;;5.92;78.33;92481.59;2054334;69;20130;-77
2022/11/05 02:43:07;;;;;;;34.15;19.48;;;;;;;5.85;78.18;92472.00;2054518;70;20234;-77
2022/11/05 02:45:54;;;;;;;37.55;20.58;;;;;;;5.82;78.51;92473.91;2054330;70;20602;-77
2022/11/05 02:48:41;;;;;;;46.72;23.33;;;;;;;5.67;79.19;92471.38;2054411;70;20158;-78
2022/11/05 02:51:13;;;;;;;42.00;23.25;;;;;;;5.67;79.17;92479.00;2051854;70;20142;-78
2022/11/05 02:53:52;;;;;;;41.03;22.70;;;;;;;5.71;79.28;92482.09;2051065;70;20209;-77
2022/11/05 02:56:32;;;;;;;41.95;22.92;;;;;;;5.72;78.98;92480.78;2051179;70;20150;-78
2022/11/05 02:58:58;;;;;;;39.35;21.90;;;;;;;5.81;78.67;92480.78;2051119;70;20162;-79
2022/11/05 03:01:23;;;;;;;39.05;21.30;;;;;;;5.65;78.09;92462.13;2051022;70;20143;-78
2022/11/05 03:03:54;;;;;;;37.33;20.73;;;;;;;5.82;77.69;92481.56;2051142;70;20134;-75
2022/11/05 03:06:58;;;;;;;35.42;20.13;;;;;;;5.92;77.00;92478.81;2051147;70;20180;-76
2022/11/05 03:09:42;;;;;;;35.78;19.83;;;;;;;5.89;77.22;92485.53;2032711;70;20170;-75
2022/11/05 03:12:26;;;;;;;35.33;19.80;;;;;;;5.96;77.24;92482.63;2051404;70;20177;-78
2022/11/05 03:15:31;;;;;;;31.85;19.13;;;;;;;5.94;77.75;92487.31;2050975;70;20225;-77
2022/11/05 03:18:13;;;;;;;30.35;17.60;;;;;;;5.94;77.68;92493.66;2054122;70;20585;-79
2022/11/05 03:20:48;;;;;;;32.63;17.67;;;;;;;5.96;77.09;92493.81;2054742;70;20215;-76
2022/11/05 03:23:24;;;;;;;29.77;17.48;;;;;;;5.99;77.00;92500.28;2056789;70;20630;-77
2022/11/05 03:26:08;;;;;;;29.02;16.63;;;;;;;5.97;76.67;92497.34;2056719;70;20142;-77
2022/11/05 03:28:37;;;;;;;25.55;14.98;;;;;;;6.02;76.71;92516.59;2054350;70;20150;-79
2022/11/05 03:31:07;;;;;;;25.88;15.57;;;;;;;6.00;76.38;92508.09;2054396;70;20161;-78
2022/11/05 03:33:37;;;;;;;25.75;15.35;;;;;;;5.98;76.49;92513.50;2054413;69;20174;-77
2022/11/05 03:36:12;;;;;;;26.83;15.45;;;;;;;5.96;77.29;92516.16;2054295;70;20279;-79
2022/11/05 03:38:42;;;;;;;24.15;14.70;;;;;;;6.05;76.68;92517.50;2054476;70;20154;-78
2022/11/05 03:41:13;;;;;;;27.05;14.82;;;;;;;5.96;76.77;92504.97;2054427;70;20134;-79
2022/11/05 03:43:45;;;;;;;23.50;14.20;;;;;;;6.04;76.47;92510.41;2054502;70;20146;-78
2022/11/05 03:46:40;;;;;;;30.23;16.70;;;;;;;5.88;77.44;92518.31;2051261;70;20254;-77
2022/11/05 03:49:11;;;;;;;26.23;15.55;;;;;;;5.98;76.35;92523.94;2054431;69;20522;-80
2022/11/05 03:52:00;;;;;;;24.42;14.55;;;;;;;6.03;76.86;92531.31;2054556;69;20134;-79
2022/11/05 03:54:26;;;;;;;24.73;14.13;;;;;;;5.97;77.24;92534.41;2054478;70;20146;-79
2022/11/05 03:57:07;;;;;;;20.70;13.07;;;;;;;6.01;77.29;92529.09;2054521;70;20241;-77
2022/11/05 03:59:43;;;;;;;20.77;12.40;;;;;;;6.07;76.66;92542.78;2054366;70;20181;-76
2022/11/05 04:02:12;;;;;;;22.13;13.18;;;;;;;6.05;76.74;92537.78;2054364;70;20181;-77
2022/11/05 04:04:52;;;;;;;20.27;12.45;;;;;;;5.99;77.40;92536.59;2054472;70;20150;-76
2022/11/05 04:17:05;;;;;;;13.85;8.77;;;;;;;5.97;77.32;92536.44;2054254;70;20185;-76
2022/11/05 04:18:19;;;;;;;11.77;7.18;;;;;;;6.02;76.42;92536.16;2054327;70;20152;-76
2022/11/05 04:26:12;;;;;;;26.92;15.07;;;;;;;5.77;78.44;92553.16;2054305;70;20214;-76
2022/11/05 04:31:24;;;;;;;30.58;16.65;;;;;;;5.46;80.12;92552.16;2054334;70;20138;-77
2022/11/05 04:33:50;;;;;;;31.85;17.20;;;;;;;5.67;79.22;92560.75;2054289;69;20164;-77
2022/11/05 04:36:15;;;;;;;33.30;18.25;;;;;;;5.57;79.70;92566.28;2054311;70;20158;-77
2022/11/05 04:38:41;;;;;;;28.33;16.55;;;;;;;5.68;78.53;92558.69;2054261;70;20153;-76
2022/11/05 04:41:15;;;;;;;30.00;16.73;;;;;;;5.73;78.06;92561.22;2054105;70;20243;-77
2022/11/05 04:43:40;;;;;;;30.15;16.38;;;;;;;5.81;77.95;92572.97;2054153;70;20169;-77
2022/11/05 04:46:06;;;;;;;28.05;16.05;;;;;;;5.82;77.96;92573.75;2054312;70;20138;-76
2022/11/05 04:48:34;;;;;;;30.42;17.02;;;;;;;5.79;77.67;92570.06;2050969;70;20240;-76
2022/11/05 04:50:59;;;;;;;26.83;15.20;;;;;;;5.85;77.04;92564.91;2050943;70;20121;-76
2022/11/05 04:53:25;;;;;;;31.77;14.57;;;;;;;5.80;77.31;92584.75;2054263;70;20134;-77
2022/11/05 04:55:50;;;;;;;26.70;15.85;;;;;;;5.63;78.00;92579.97;2054312;70;20153;-76
2022/11/05 04:58:17;;;;;;;26.27;14.80;;;;;;;5.72;77.94;92579.28;2054257;70;20138;-76
2022/11/05 05:00:43;;;;;;;20.30;12.45;;;;;;;5.78;77.70;92582.53;2053952;70;20188;-77
2022/11/05 05:03:08;;;;;;;23.58;12.70;;;;;;;5.80;77.15;92591.06;2054243;70;20602;-77
2022/11/05 05:05:34;;;;;;;23.85;13.50;;;;;;;5.78;76.96;92584.59;2054235;70;20618;-77
2022/11/05 05:08:04;;;;;;;23.48;13.02;;;;;;;5.79;77.35;92595.19;2054379;70;20344;-77
2022/11/05 05:10:31;;;;;;;21.40;11.85;;;;;;;5.76;76.93;92596.34;2054137;70;20327;-76
2022/11/05 05:12:57;;;;;;;22.70;13.05;;;;;;;5.68;77.86;92598.53;2054249;70;20233;-77
2022/11/05 05:15:23;;;;;;;22.17;12.63;;;;;;;5.69;78.03;92605.59;2054060;70;20582;-76
2022/11/05 05:17:51;;;;;;;18.67;11.60;;;;;;;5.78;77.92;92609.75;2054110;70;20197;-76
2022/11/05 05:23:03;;;;;;;19.80;12.02;;;;;;;5.83;77.81;92615.06;2054125;70;20134;-76
2022/11/05 05:25:29;;;;;;;19.92;12.13;;;;;;;5.93;77.75;92626.28;2054351;70;20533;-76
2022/11/05 05:27:57;;;;;;;17.40;10.90;;;;;;;5.86;77.64;92622.28;2054124;70;20130;-76
2022/11/05 05:30:23;;;;;;;19.42;11.25;;;;;;;5.89;78.05;92623.16;2054009;70;20658;-76
2022/11/05 05:32:49;;;;;;;18.42;11.05;;;;;;;5.94;77.24;92629.81;2054310;70;20324;-77
2022/11/05 05:35:15;;;;;;;22.65;13.18;;;;;;;5.48;78.68;92631.19;2054115;70;20142;-78
2022/11/05 05:37:41;;;;;;;24.48;14.57;;;;;;;5.04;81.22;92629.19;2054159;70;20212;-76
2022/11/05 05:40:07;;;;;;;24.23;14.15;;;;;;;5.48;80.71;92624.88;2050873;70;20146;-76
2022/11/05 05:42:33;;;;;;;22.20;13.15;;;;;;;5.72;78.94;92623.97;2054145;70;20167;-76
2022/11/05 05:44:59;;;;;;;22.83;13.65;;;;;;;5.78;78.48;92632.84;2054035;70;20589;-76
2022/11/05 05:47:25;;;;;;;22.98;13.20;;;;;;;5.77;78.22;92636.19;2054171;70;20148;-77
2022/11/05 05:49:51;;;;;;;22.67;13.60;;;;;;;5.81;78.32;92636.50;2054106;70;20165;-76
2022/11/05 05:52:17;;;;;;;22.90;13.18;;;;;;;5.70;78.47;92637.78;2054211;70;20176;-76
2022/11/05 05:54:42;;;;;;;26.75;14.93;;;;;;;5.59;78.94;92641.13;2054599;70;20138;-76
2022/11/05 05:57:08;;;;;;;29.13;16.05;;;;;;;5.79;77.58;92645.47;2054682;70;20171;-76
2022/11/05 05:59:34;;;;;;;25.08;15.10;;;;;;;5.85;77.53;92650.78;2051211;70;20197;-76
2022/11/05 06:01:59;;;;;;;29.13;16.10;;;;;;;5.79;78.07;92651.06;2054745;70;20324;-76
2022/11/05 06:04:25;;;;;;;26.38;14.63;;;;;;;5.77;77.52;92650.91;2054622;70;20134;-78
2022/11/05 06:06:51;;;;;;;28.45;15.50;;;;;;;5.82;76.69;92657.56;2054673;70;20138;-77
2022/11/05 06:09:17;;;;;;;29.60;17.58;;;;;;;5.74;77.75;92649.28;2054719;70;20237;-77
2022/11/05 06:11:43;;;;;;;39.33;22.65;;;;;;;5.69;77.74;92650.28;2054556;70;20224;-76
2022/11/05 06:14:11;;;;;;;29.88;18.83;;;;;;;5.71;77.62;92660.88;2051242;70;20166;-76
2022/11/05 06:16:37;;;;;;;38.60;20.40;;;;;;;5.38;79.18;92663.19;2051322;70;20249;-75
2022/11/05 06:19:05;;;;;;;32.35;17.77;;;;;;;5.61;79.01;92669.19;2051282;70;20146;-76
2022/11/05 06:21:31;;;;;;;29.70;16.25;;;;;;;5.80;77.38;92666.50;2051286;70;20201;-73
2022/11/05 06:24:00;;;;;;;30.40;15.88;;;;;;;5.68;78.27;92670.41;2054539;69;20215;-75
2022/11/05 06:26:26;;;;;;;27.88;15.82;;;;;;;5.77;78.03;92667.69;2054691;69;20146;-74
2022/11/05 06:28:53;;;;;;;27.13;15.35;;;;;;;5.83;77.78;92673.00;2054427;70;20212;-75
2022/11/05 06:31:18;;;;;;;30.20;17.05;;;;;;;5.91;77.29;92676.41;2051191;70;20589;-76
2022/11/05 06:33:44;;;;;;;27.85;15.80;;;;;;;6.01;76.61;92668.09;2054631;70;20154;-74
2022/11/05 06:36:14;;;;;;;29.05;16.73;;;;;;;6.05;77.52;92687.97;2054572;70;20245;-76
2022/11/05 06:38:40;;;;;;;28.15;16.02;;;;;;;6.15;77.45;92690.81;2054567;70;20153;-77
2022/11/05 06:41:05;;;;;;;29.65;16.15;;;;;;;6.03;77.52;92698.97;2054655;70;20142;-77
2022/11/05 06:43:31;;;;;;;26.35;15.98;;;;;;;5.95;78.29;92704.69;2054669;70;20238;-76
2022/11/05 06:46:00;;;;;;;27.88;16.58;;;;;;;5.81;78.36;92711.94;2054369;69;20158;-75
2022/11/05 06:48:26;;;;;;;28.80;16.33;;;;;;;5.97;78.02;92704.84;2054721;70;20281;-75
2022/11/05 06:50:51;;;;;;;29.45;16.73;;;;;;;6.17;76.78;92710.50;2054613;70;20224;-75
2022/11/05 06:53:17;;;;;;;42.13;22.50;;;;;;;5.88;78.08;92719.47;2054537;70;20201;-77
2022/11/05 06:55:46;;;;;;;33.72;19.90;;;;;;;6.04;77.68;92726.34;2054615;70;20158;-77
2022/11/05 06:58:13;;;;;;;31.23;18.92;;;;;;;6.08;77.61;92732.25;2054499;70;20601;-76
2022/11/05 07:00:39;;;;;;;35.33;19.15;;;;;;;6.13;77.55;92724.91;2054426;70;20571;-75
2022/11/05 07:03:07;;;;;;;29.10;17.73;;;;;;;6.20;76.73;92723.34;2054426;70;20220;-76
2022/11/05 07:05:35;;;;;;;30.70;17.42;;;;;;;6.29;77.17;92728.97;2051088;70;20165;-76
2022/11/05 07:08:01;;;;;;;27.63;15.75;;;;;;;6.45;75.98;92739.91;2054839;69;20157;-76
2022/11/05 07:10:26;;;;;;;25.67;14.68;;;;;;;6.38;76.68;92732.38;2055022;70;20162;-76
2022/11/05 07:12:52;;;;;;;26.75;16.58;;;;;;;6.35;76.47;92740.59;2055000;70;20238;-79
2022/11/05 07:15:17;;;;;;;32.78;18.27;;;;;;;6.15;76.72;92727.88;2054349;69;20217;-77
2022/11/05 07:17:43;;;;;;;31.27;18.05;;;;;;;6.18;76.68;92751.84;2054761;69;20142;-77
2022/11/05 07:20:09;;;;;;;30.20;17.83;;;;;;;6.27;77.15;92756.03;2054454;70;20241;-76
2022/11/05 07:22:35;;;;;;;29.48;17.55;;;;;;;6.27;77.32;92756.75;2051367;70;20166;-77
2022/11/05 07:25:02;;;;;;;30.63;17.00;;;;;;;6.42;76.44;92749.47;2054496;70;20185;-78
2022/11/05 07:27:27;;;;;;;27.73;16.50;;;;;;;6.52;76.28;92747.44;2054558;70;20142;-77
2022/11/05 07:29:53;;;;;;;26.48;16.52;;;;;;;6.66;75.81;92762.50;2054427;69;20518;-77
2022/11/05 07:32:18;;;;;;;28.55;16.98;;;;;;;6.67;76.54;92757.66;2054506;70;20141;-78
2022/11/05 07:34:44;;;;;;;27.27;15.07;;;;;;;6.46;76.15;92760.94;2054502;70;20602;-76
2022/11/05 07:37:10;;;;;;;25.98;14.98;;;;;;;6.29;77.71;92761.78;2054712;69;20140;-76
2022/11/05 07:39:35;;;;;;;28.98;16.63;;;;;;;6.28;77.40;92758.25;2054558;70;20236;-77
2022/11/05 07:42:01;;;;;;;27.20;14.52;;;;;;;6.32;77.76;92775.34;2054436;70;20153;-77
2022/11/05 07:44:32;;;;;;;27.13;16.23;;;;;;;6.28;78.23;92769.44;2051059;70;20272;-78
2022/11/05 07:46:57;;;;;;;27.25;15.55;;;;;;;6.30;78.36;92774.44;2054615;70;20292;-78
2022/11/05 07:49:23;;;;;;;26.77;14.55;;;;;;;6.61;77.03;92769.13;2054460;70;20169;-76
2022/11/05 07:51:48;;;;;;;23.90;13.68;;;;;;;6.65;76.30;92774.28;2054466;69;20176;-78
2022/11/05 07:54:14;;;;;;;20.50;12.75;;;;;;;6.88;74.75;92775.38;2054491;70;20554;-76
2022/11/05 07:56:39;;;;;;;23.98;13.68;;;;;;;7.10;76.17;92775.56;2054589;70;20153;-77
2022/11/05 07:59:05;;;;;;;24.92;15.18;;;;;;;6.91;75.13;92781.13;2054444;70;20157;-78
2022/11/05 08:01:31;;;;;;;24.67;14.32;;;;;;;6.60;76.80;92778.84;2054644;70;20166;-79
2022/11/05 08:03:56;;;;;;;26.67;14.70;;;;;;;6.51;77.33;92768.34;2051344;70;20227;-79
2022/11/05 08:06:22;;;;;;;22.05;13.15;;;;;;;6.57;76.69;92777.19;2054928;69;20150;-77
2022/11/05 08:08:47;;;;;;;18.17;10.80;;;;;;;6.42;76.15;92769.78;2054479;70;20174;-77
2022/11/05 08:11:13;;;;;;;19.17;11.93;;;;;;;6.73;75.78;92760.91;2054435;70;20172;-77
2022/11/05 08:13:39;;;;;;;16.17;10.57;;;;;;;6.82;75.02;92785.38;2054477;70;20142;-77
2022/11/05 08:16:05;;;;;;;17.45;11.23;;;;;;;6.88;74.82;92777.44;2054272;70;20216;-78
2022/11/05 08:18:31;;;;;;;18.83;11.20;;;;;;;7.23;75.80;92782.81;2054674;70;20209;-76
2022/11/05 08:21:03;;;;;;;20.65;11.82;;;;;;;7.42;74.42;92780.00;2054501;70;20205;-76
2022/11/05 08:23:30;;;;;;;15.50;10.15;;;;;;;7.57;73.56;92779.75;2054471;70;20150;-76
2022/11/05 08:25:56;;;;;;;14.05;8.68;;;;;;;7.03;73.60;92776.44;2054553;69;20139;-77
2022/11/05 08:28:24;;;;;;;17.77;10.68;;;;;;;7.90;76.21;92784.88;2054603;70;20654;-76
2022/11/05 08:30:51;;;;;;;14.55;8.85;;;;;;;7.51;72.48;92784.88;2054339;70;20622;-77
2022/11/05 08:33:17;;;;;;;9.80;6.50;;;;;;;7.49;71.69;92770.75;2054580;70;20166;-79
2022/11/05 08:35:43;;;;;;;11.13;6.95;;;;;;;7.93;71.21;92792.13;2054512;70;20174;-76
2022/11/05 08:38:14;;;;;;;9.88;6.38;;;;;;;7.93;69.52;92783.72;2054416;70;20277;-77
2022/11/05 08:40:41;;;;;;;8.60;6.10;;;;;;;8.13;68.75;92787.94;2054666;70;20154;-80
2022/11/05 08:43:09;;;;;;;9.98;5.63;;;;;;;8.56;68.68;92774.13;2054602;70;20597;-77
2022/11/05 08:45:38;;;;;;;8.10;5.28;;;;;;;8.74;66.33;92779.50;2054762;69;20282;-77
2022/11/05 08:48:09;;;;;;;10.18;6.55;;;;;;;9.22;66.56;92784.16;2054785;70;20535;-78
2022/11/05 08:50:36;;;;;;;10.55;6.25;;;;;;;9.89;67.32;92780.84;2054487;70;20216;-80
2022/11/05 08:53:02;;;;;;;14.57;7.82;;;;;;;10.13;65.09;92772.50;2054411;70;20166;-78
2022/11/05 08:55:28;;;;;;;11.88;8.15;;;;;;;10.55;67.53;92780.09;2054724;69;20162;-77
2022/11/05 08:58:04;;;;;;;14.77;10.02;;;;;;;10.94;63.89;92776.81;2054312;70;20526;-78
2022/11/05 09:00:31;;;;;;;10.77;7.75;;;;;;;11.37;62.36;92774.44;2054374;70;20497;-77
2022/11/05 09:03:02;;;;;;;12.27;6.65;;;;;;;11.87;61.09;92778.78;2054395;70;20153;-76
2022/11/05 09:05:29;;;;;;;7.32;5.25;;;;;;;11.49;58.53;92780.06;2054494;70;20611;-76
2022/11/05 09:07:55;;;;;;;6.35;4.00;;;;;;;12.14;59.58;92774.59;2054396;70;20146;-79
2022/11/05 09:10:20;;;;;;;6.70;3.63;;;;;;;12.61;57.08;92771.56;2054520;70;20275;-77
2022/11/05 09:12:49;;;;;;;4.47;3.25;;;;;;;11.87;53.72;92778.78;2054518;70;20156;-77
2022/11/05 09:15:14;;;;;;;3.55;2.90;;;;;;;11.39;54.82;92779.47;2054308;69;20161;-76
2022/11/05 09:17:40;;;;;;;10.90;6.57;;;;;;;11.59;56.59;92780.66;2054321;70;20251;-77
2022/11/05 09:20:07;;;;;;;7.57;5.60;;;;;;;11.91;57.80;92789.53;2054452;70;20150;-77
2022/11/05 09:22:33;;;;;;;8.77;5.20;;;;;;;11.31;56.28;92782.53;2054442;70;20502;-78
2022/11/05 09:24:59;;;;;;;6.18;4.97;;;;;;;10.96;57.05;92784.66;2054569;70;20166;-78
2022/11/05 09:27:25;;;;;;;7.82;5.22;;;;;;;10.82;58.50;92790.88;2054287;70;20142;-78
2022/11/05 09:29:50;;;;;;;6.78;4.78;;;;;;;10.22;59.36;92785.75;2054337;70;20280;-80
2022/11/05 09:32:18;;;;;;;6.15;4.40;;;;;;;10.96;58.64;92788.19;2054678;70;20142;-78
2022/11/05 09:34:44;;;;;;;6.28;4.47;;;;;;;11.60;58.12;92784.22;2054226;70;20169;-75
2022/11/05 09:37:10;;;;;;;7.07;4.53;;;;;;;11.40;57.89;92784.47;2054273;70;20243;-76
2022/11/05 09:39:37;;;;;;;5.75;4.20;;;;;;;11.44;57.57;92790.34;2054236;70;20708;-77
2022/11/05 09:42:12;;;;;;;4.28;3.35;;;;;;;11.10;57.84;92791.88;2054307;70;20145;-78
2022/11/05 09:44:48;;;;;;;5.28;3.88;;;;;;;10.93;59.52;92795.78;2055123;70;20142;-76
2022/11/05 09:47:23;;;;;;;4.88;4.13;;;;;;;11.08;59.29;92803.00;2054370;70;20166;-76
2022/11/05 09:49:51;;;;;;;4.78;3.40;;;;;;;10.53;58.35;92802.47;2054362;70;20154;-78
2022/11/05 09:52:24;;;;;;;5.63;3.35;;;;;;;10.15;59.65;92815.53;2054641;70;20157;-78
2022/11/05 09:54:51;;;;;;;4.80;3.45;;;;;;;10.44;59.46;92817.38;2051145;70;20146;-76
2022/11/05 09:57:51;;;;;;;5.40;3.88;;;;;;;10.55;58.90;92822.31;2054445;70;20582;-77
2022/11/05 10:00:18;;;;;;;4.55;3.67;;;;;;;10.40;60.29;92820.69;2051106;70;20586;-77
2022/11/05 10:02:50;;;;;;;5.32;3.90;;;;;;;10.35;60.53;92823.84;2048960;70;20146;-78
2022/11/05 10:05:17;;;;;;;6.25;4.30;;;;;;;10.46;60.24;92822.41;2054974;70;20138;-76
2022/11/05 10:07:50;;;;;;;6.30;4.07;;;;;;;10.18;60.78;92824.88;2055630;70;20201;-75
2022/11/05 10:10:38;;;;;;;6.32;4.35;;;;;;;9.93;61.37;92825.34;2055419;70;20499;-75
2022/11/05 10:13:22;;;;;;;5.70;4.20;;;;;;;9.33;63.64;92817.19;2054551;70;20161;-76
2022/11/05 10:16:03;;;;;;;6.60;4.32;;;;;;;9.88;62.31;92823.63;2053669;70;20315;-77
2022/11/05 10:18:36;;;;;;;6.57;4.28;;;;;;;9.36;62.44;92822.34;2054110;70;20511;-78
2022/11/05 10:21:03;;;;;;;5.93;4.00;;;;;;;8.69;65.00;92823.41;2054195;70;20563;-78
2022/11/05 10:23:29;;;;;;;5.97;4.13;;;;;;;8.71;64.69;92817.22;2054560;70;20146;-79
2022/11/05 10:26:01;;;;;;;6.78;4.22;;;;;;;9.22;64.29;92823.47;2054168;70;20188;-77
2022/11/05 10:28:30;;;;;;;7.32;4.10;;;;;;;9.06;63.95;92826.66;2054200;70;20151;-77
2022/11/05 10:31:02;;;;;;;7.22;4.18;;;;;;;8.98;65.22;92814.88;2053935;70;20217;-77
2022/11/05 10:33:38;;;;;;;6.75;4.40;;;;;;;9.48;63.90;92822.41;2054068;70;20241;-77
2022/11/05 10:36:06;;;;;;;6.85;4.72;;;;;;;9.94;62.67;92829.63;2053831;70;20150;-77
2022/11/05 10:38:32;;;;;;;6.50;4.20;;;;;;;10.09;62.33;92829.22;2053749;70;20225;-80
2022/11/05 10:41:29;;;;;;;5.85;4.25;;;;;;;10.24;61.03;92828.09;2054510;70;20377;-82
2022/11/05 10:44:31;;;;;;;6.65;4.43;;;;;;;9.54;61.51;92844.59;2054675;70;20598;-80
2022/11/05 10:47:18;;;;;;;7.88;4.70;;;;;;;9.65;63.01;92841.84;2047980;70;20153;-76
2022/11/05 10:50:01;;;;;;;8.63;5.68;;;;;;;9.84;62.75;92838.16;2051343;70;20142;-77
2022/11/05 10:52:41;;;;;;;8.52;5.97;;;;;;;10.03;62.05;92842.88;2054543;70;20150;-76
2022/11/05 10:55:20;;;;;;;7.47;5.30;;;;;;;10.82;60.74;92840.84;2054869;70;20168;-79
2022/11/05 10:57:47;;;;;;;6.22;4.85;;;;;;;10.25;61.61;92835.19;2054904;69;20240;-80
2022/11/05 11:00:13;;;;;;;6.88;4.93;;;;;;;11.01;61.03;92837.06;2054478;70;20138;-76
2022/11/05 11:02:41;;;;;;;9.82;5.30;;;;;;;10.41;60.58;92836.22;2051239;70;20169;-83
2022/11/05 11:05:09;;;;;;;6.88;4.82;;;;;;;10.30;62.27;92827.72;2051320;70;20142;-79
2022/11/05 11:07:35;;;;;;;7.10;4.72;;;;;;;9.77;62.00;92830.66;2054710;70;20610;-82
2022/11/05 11:10:02;;;;;;;6.75;4.97;;;;;;;10.66;60.25;92834.94;2054692;70;20252;-79
2022/11/05 11:12:37;;;;;;;5.95;4.30;;;;;;;10.60;60.45;92831.75;2051241;70;20620;-80
2022/11/05 11:15:15;;;;;;;5.47;3.88;;;;;;;10.53;60.98;92818.63;2054429;70;20154;-79
2022/11/05 11:17:40;;;;;;;5.18;3.90;;;;;;;11.03;59.31;92834.38;2054575;70;20579;-78
2022/11/05 11:20:15;;;;;;;4.82;3.83;;;;;;;10.98;58.48;92818.56;2054721;70;20142;-78
2022/11/05 11:22:40;;;;;;;5.85;3.78;;;;;;;11.00;57.79;92830.72;2054730;70;20146;-78
2022/11/05 11:25:28;;;;;;;7.45;3.83;;;;;;;10.33;60.71;92832.16;2054699;70;20163;-79
2022/11/05 11:27:59;;;;;;;4.47;3.60;;;;;;;11.80;59.02;92826.97;2054610;70;20651;-79
2022/11/05 11:30:26;;;;;;;5.28;3.30;;;;;;;11.99;56.04;92821.03;2054515;69;20178;-80
2022/11/05 11:33:10;;;;;;;4.35;3.05;;;;;;;12.04;57.08;92824.84;2054651;70;20220;-81
2022/11/05 11:35:37;;;;;;;5.78;3.92;;;;;;;11.15;57.05;92830.22;2054670;70;20161;-82
2022/11/05 11:38:04;;;;;;;6.82;4.18;;;;;;;11.37;57.29;92824.47;2054947;69;20146;-78
2022/11/05 11:40:33;;;;;;;7.20;4.40;;;;;;;11.74;55.42;92821.72;2054998;69;20154;-78
2022/11/05 11:43:04;;;;;;;7.22;4.88;;;;;;;12.11;55.98;92832.31;2054852;70;20160;-78
2022/11/05 11:45:44;;;;;;;8.15;5.78;;;;;;;11.19;57.36;92830.47;2051437;70;20144;-79
2022/11/05 11:48:17;;;;;;;8.40;6.03;;;;;;;10.91;57.90;92837.91;2054715;69;20237;-77
2022/11/05 11:50:44;;;;;;;7.30;4.57;;;;;;;10.80;58.38;92840.72;2054608;70;20154;-75
2022/11/05 11:53:19;;;;;;;10.00;7.03;;;;;;;10.97;58.61;92831.91;2054813;70;20153;-75
2022/11/05 11:55:53;;;;;;;11.98;7.43;;;;;;;11.35;58.34;92830.69;2056028;70;20154;-76
2022/11/05 11:58:24;;;;;;;5.63;4.60;;;;;;;11.19;58.03;92836.09;2054688;69;20157;-76
2022/11/05 12:01:08;;;;;;;6.05;4.80;;;;;;;11.59;57.67;92827.84;2054416;70;20213;-79
2022/11/05 12:04:24;;;;;;;6.13;4.57;;;;;;;11.29;57.90;92832.41;2054679;70;20165;-76
2022/11/05 12:07:04;;;;;;;5.65;4.50;;;;;;;11.16;58.98;92830.94;2054683;70;20161;-75
2022/11/05 12:09:54;;;;;;;9.23;5.05;;;;;;;11.70;58.86;92836.28;2054596;70;20146;-76
2022/11/05 12:12:30;;;;;;;6.63;5.28;;;;;;;11.27;58.90;92833.03;2054541;70;20142;-78
2022/11/05 12:15:02;;;;;;;7.35;5.47;;;;;;;11.56;58.59;92832.66;2054402;69;20607;-78
2022/11/05 12:17:54;;;;;;;9.48;5.10;;;;;;;11.22;59.46;92834.13;2051295;70;20226;-75
2022/11/05 12:20:44;;;;;;;8.25;5.68;;;;;;;11.20;58.84;92831.19;2051357;70;20166;-75
2022/11/05 12:23:19;;;;;;;9.48;6.00;;;;;;;11.01;60.27;92840.63;2051342;70;20606;-74
2022/11/05 12:25:54;;;;;;;8.20;5.82;;;;;;;10.79;62.04;92842.06;2044728;70;20533;-77
2022/11/05 12:28:28;;;;;;;8.57;6.55;;;;;;;11.61;60.96;92842.81;2051155;70;20292;-74